Time;durP1;ratioP1;P1;durP2;ratioP2;P2;SDS_P1;SDS_P2;PMS_P1;PMS_P2;Temp;Humidity;BMP_temperature;BMP_pressure;BME280_temperature;BME280_humidity;BME280_pressure;Samples;Min_cycle;Max_cycle;Signal;HPM_P1;HPM_P2
2021/09/17 00:01:05;;;;;;;10.93;8.02;;;;;;;17.16;81.26;95695.31;5015994;28;20203;-86
2021/09/17 00:03:32;;;;;;;15.57;7.90;;;;;;;17.16;81.05;95690.13;5015492;28;20242;-84
2021/09/17 00:05:59;;;;;;;9.15;8.18;;;;;;;17.14;80.38;95692.16;5015435;28;20203;-82
2021/09/17 00:08:26;;;;;;;8.75;7.72;;;;;;;17.15;80.38;95691.13;5014967;28;20689;-81
2021/09/17 00:10:52;;;;;;;8.63;7.82;;;;;;;17.08;80.22;95696.41;5015207;28;20222;-84
2021/09/17 00:13:19;;;;;;;9.15;8.10;;;;;;;17.01;80.68;95694.88;5014921;28;20234;-81
2021/09/17 00:15:45;;;;;;;9.73;7.97;;;;;;;17.01;81.00;95689.66;5014538;28;20199;-84
2021/09/17 00:18:12;;;;;;;9.13;7.80;;;;;;;17.00;80.81;95703.69;5015225;28;20215;-84
2021/09/17 00:20:39;;;;;;;9.25;7.65;;;;;;;16.95;80.91;95693.91;5015050;28;20203;-83
2021/09/17 00:23:07;;;;;;;11.07;7.65;;;;;;;16.95;80.26;95693.13;5014616;28;20234;-81
2021/09/17 00:25:33;;;;;;;9.20;8.30;;;;;;;16.90;81.17;95691.97;5014109;28;20203;-84
2021/09/17 00:27:59;;;;;;;11.02;7.90;;;;;;;16.90;80.87;95696.38;5014719;28;20210;-85
2021/09/17 00:30:28;;;;;;;9.65;7.85;;;;;;;16.80;81.11;95698.66;5015263;28;20230;-84
2021/09/17 00:32:54;;;;;;;8.48;7.70;;;;;;;16.84;80.77;95697.22;5013957;28;20233;-84
2021/09/17 00:35:21;;;;;;;8.65;7.82;;;;;;;16.76;80.53;95694.88;5014445;28;20203;-81
2021/09/17 00:37:47;;;;;;;9.80;8.35;;;;;;;16.75;80.90;95694.06;5015549;28;20202;-81
2021/09/17 00:40:16;;;;;;;8.48;7.60;;;;;;;16.72;81.10;95699.72;5014799;28;20214;-81
2021/09/17 00:42:43;;;;;;;9.02;8.23;;;;;;;16.72;80.90;95697.13;5014978;28;20218;-81
2021/09/17 00:45:12;;;;;;;8.85;7.80;;;;;;;16.65;81.24;95696.34;5014473;28;20218;-81
2021/09/17 00:47:41;;;;;;;8.43;7.63;;;;;;;16.63;81.44;95694.94;5014573;28;20199;-80
2021/09/17 00:50:09;;;;;;;9.15;8.23;;;;;;;16.65;81.42;95693.75;5001334;28;20262;-83
2021/09/17 00:52:35;;;;;;;9.23;8.02;;;;;;;16.62;80.57;95694.16;4994622;28;20215;-81
2021/09/17 00:55:02;;;;;;;8.70;7.80;;;;;;;16.63;80.13;95694.94;4993845;28;20230;-81
2021/09/17 00:57:30;;;;;;;8.23;7.43;;;;;;;16.64;80.34;95691.38;4994707;28;20206;-86
2021/09/17 00:59:57;;;;;;;8.35;7.60;;;;;;;16.62;80.87;95682.94;4994395;28;20211;-81
2021/09/17 01:02:23;;;;;;;9.68;8.00;;;;;;;16.56;79.73;95680.19;4994315;28;20246;-80
2021/09/17 01:04:50;;;;;;;9.30;8.40;;;;;;;16.55;79.95;95677.78;4993756;28;20200;-81
2021/09/17 01:07:17;;;;;;;9.93;7.85;;;;;;;16.54;79.80;95679.63;4993627;28;20203;-81
2021/09/17 01:09:44;;;;;;;8.95;8.05;;;;;;;16.48;80.40;95672.66;4994176;28;20227;-82
2021/09/17 01:12:12;;;;;;;8.63;7.78;;;;;;;16.51;80.43;95674.03;4994627;28;20223;-81
2021/09/17 01:14:40;;;;;;;9.55;7.47;;;;;;;16.45;80.17;95670.47;4994806;28;20215;-82
2021/09/17 01:17:07;;;;;;;8.15;7.40;;;;;;;16.48;80.25;95672.66;4995150;28;20210;-81
2021/09/17 01:19:35;;;;;;;7.93;7.13;;;;;;;16.42;79.83;95670.09;4994856;28;20199;-82
2021/09/17 01:22:05;;;;;;;9.93;7.30;;;;;;;16.37;80.37;95668.13;4994172;28;20220;-82
2021/09/17 01:24:32;;;;;;;8.15;7.35;;;;;;;16.39;80.93;95666.13;4993632;28;20192;-83
2021/09/17 01:26:59;;;;;;;8.68;7.50;;;;;;;16.39;80.85;95663.50;4994365;28;20714;-83
2021/09/17 01:29:26;;;;;;;10.23;7.32;;;;;;;16.44;80.22;95662.88;4993841;28;20556;-85
2021/09/17 01:31:52;;;;;;;9.88;7.47;;;;;;;16.50;80.41;95651.66;4993610;28;20238;-83
2021/09/17 01:34:21;;;;;;;7.85;7.13;;;;;;;16.47;80.02;95655.47;4993299;28;20243;-84
2021/09/17 01:36:48;;;;;;;8.77;7.13;;;;;;;16.48;80.04;95651.88;4993901;28;20262;-82
2021/09/17 01:39:18;;;;;;;8.73;7.28;;;;;;;16.47;80.13;95645.06;4994106;28;20248;-82
2021/09/17 01:41:46;;;;;;;8.82;7.30;;;;;;;16.42;79.42;95646.72;4993306;28;20246;-83
2021/09/17 01:44:12;;;;;;;7.10;6.40;;;;;;;16.41;80.26;95652.91;4993147;28;20203;-83
2021/09/17 01:46:39;;;;;;;7.82;6.90;;;;;;;16.44;80.51;95647.28;4993203;28;20616;-84
2021/09/17 01:49:05;;;;;;;8.30;7.50;;;;;;;16.44;81.00;95647.28;4993013;28;20948;-85
2021/09/17 01:51:32;;;;;;;8.20;7.10;;;;;;;16.42;80.21;95644.09;4992223;28;20223;-81
2021/09/17 01:53:58;;;;;;;8.32;7.35;;;;;;;16.35;81.87;95638.19;4982481;28;20199;-80
2021/09/17 01:56:26;;;;;;;10.95;7.75;;;;;;;16.33;82.27;95642.78;4994394;28;20211;-80
2021/09/17 01:58:53;;;;;;;9.57;7.10;;;;;;;16.34;81.34;95649.59;4993938;28;20603;-84
2021/09/17 02:01:20;;;;;;;9.43;7.97;;;;;;;16.28;81.79;95646.00;4993826;28;20229;-87
2021/09/17 02:03:46;;;;;;;9.30;6.88;;;;;;;16.26;82.06;95645.41;4993417;28;20211;-84
2021/09/17 02:06:19;;;;;;;7.25;6.55;;;;;;;16.38;80.72;95648.94;4993323;28;20210;-85
2021/09/17 02:08:46;;;;;;;7.55;6.85;;;;;;;16.36;81.15;95640.53;4993578;28;20311;-85
2021/09/17 02:11:13;;;;;;;7.25;6.55;;;;;;;16.40;80.22;95646.91;4993729;28;20234;-86
2021/09/17 02:13:41;;;;;;;7.65;6.95;;;;;;;16.42;80.29;95650.09;4992850;28;20228;-85
2021/09/17 02:16:08;;;;;;;9.32;6.40;;;;;;;16.36;80.79;95650.13;4992437;28;20666;-86
2021/09/17 02:18:35;;;;;;;7.28;6.57;;;;;;;16.40;79.88;95646.91;4992604;28;20265;-84
2021/09/17 02:21:01;;;;;;;9.07;6.82;;;;;;;16.43;79.29;95650.91;4992778;28;20204;-83
2021/09/17 02:23:28;;;;;;;7.88;7.18;;;;;;;16.41;78.42;95647.72;4992930;28;20313;-83
2021/09/17 02:25:54;;;;;;;7.88;6.82;;;;;;;16.41;79.00;95650.31;4993937;28;20203;-84
2021/09/17 02:28:20;;;;;;;8.73;6.10;;;;;;;16.38;79.12;95659.31;4996207;28;20204;-86
2021/09/17 02:30:49;;;;;;;8.30;6.75;;;;;;;16.31;80.18;95661.19;4996210;28;20878;-85
2021/09/17 02:33:15;;;;;;;9.55;6.85;;;;;;;16.28;79.80;95661.59;4996422;28;20231;-86
2021/09/17 02:35:42;;;;;;;7.10;6.43;;;;;;;16.32;79.77;95659.38;4995610;28;20214;-85
2021/09/17 02:38:09;;;;;;;7.00;6.30;;;;;;;16.35;79.71;95662.38;4996427;28;20191;-85
2021/09/17 02:40:35;;;;;;;9.50;7.18;;;;;;;16.35;78.44;95659.75;4996150;28;20199;-84
2021/09/17 02:43:02;;;;;;;9.90;7.28;;;;;;;16.38;78.68;95663.72;4996102;28;20223;-85
2021/09/17 02:45:29;;;;;;;8.27;6.93;;;;;;;16.32;78.25;95659.38;4994976;28;20211;-81
2021/09/17 02:47:57;;;;;;;9.60;7.07;;;;;;;16.35;79.11;95658.97;4996217;28;20204;-85
2021/09/17 02:50:23;;;;;;;8.40;6.55;;;;;;;16.43;78.91;95661.28;4995720;28;20227;-87
2021/09/17 02:52:49;;;;;;;7.03;6.30;;;;;;;16.43;78.49;95664.69;4996259;28;20235;-84
2021/09/17 02:55:16;;;;;;;7.25;6.53;;;;;;;16.43;78.24;95661.28;4997576;28;20199;-82
2021/09/17 02:57:42;;;;;;;7.50;6.80;;;;;;;16.34;77.90;95652.19;4998688;28;20203;-82
2021/09/17 03:00:11;;;;;;;7.82;6.97;;;;;;;16.35;78.53;95653.78;4999745;28;20188;-85
2021/09/17 03:02:37;;;;;;;7.35;6.65;;;;;;;16.29;78.75;95658.00;4999661;28;20231;-85
2021/09/17 03:05:06;;;;;;;7.97;6.85;;;;;;;16.31;78.38;95653.38;4999038;28;20686;-86
2021/09/17 03:07:32;;;;;;;8.80;6.88;;;;;;;16.30;78.61;95654.41;4999141;28;20199;-82
2021/09/17 03:09:59;;;;;;;7.93;6.70;;;;;;;16.30;78.76;95651.78;5000066;28;20203;-81
2021/09/17 03:12:25;;;;;;;7.65;6.93;;;;;;;16.29;78.80;95652.81;4999503;28;20242;-81
2021/09/17 03:14:52;;;;;;;8.43;6.82;;;;;;;16.25;79.66;95662.00;4999744;28;20208;-82
2021/09/17 03:17:18;;;;;;;7.88;7.07;;;;;;;16.30;80.12;95649.19;4999840;28;20230;-82
2021/09/17 03:19:45;;;;;;;8.65;6.60;;;;;;;16.36;79.20;95650.13;4999737;28;20683;-82
2021/09/17 03:22:12;;;;;;;7.72;6.82;;;;;;;16.34;79.03;95645.19;4999881;28;20265;-82
2021/09/17 03:24:39;;;;;;;7.75;6.95;;;;;;;16.38;78.94;95643.72;4998980;28;20215;-87
2021/09/17 03:27:05;;;;;;;8.00;7.20;;;;;;;16.35;79.13;95651.19;4997029;28;20207;-85
2021/09/17 03:29:32;;;;;;;7.65;6.75;;;;;;;16.37;78.95;95651.72;5000188;28;20203;-87
2021/09/17 03:31:58;;;;;;;8.05;7.25;;;;;;;16.37;78.21;95651.72;4998981;28;20238;-85
2021/09/17 03:34:25;;;;;;;7.63;6.55;;;;;;;16.31;78.20;95644.81;4998872;28;20199;-85
2021/09/17 03:36:51;;;;;;;9.52;7.43;;;;;;;16.30;78.57;95648.41;4998638;28;20210;-84
2021/09/17 03:39:19;;;;;;;6.88;6.25;;;;;;;16.31;78.82;95639.59;4999295;28;20203;-85
2021/09/17 03:41:46;;;;;;;7.95;7.15;;;;;;;16.35;78.67;95648.56;4999054;28;20227;-85
2021/09/17 03:44:13;;;;;;;8.50;7.20;;;;;;;16.37;79.29;95643.94;4997188;28;20309;-85
2021/09/17 03:46:40;;;;;;;7.78;7.00;;;;;;;16.36;79.18;95637.94;4995391;28;20270;-81
2021/09/17 03:49:07;;;;;;;7.95;7.15;;;;;;;16.38;79.20;95641.13;4994030;28;20706;-81
2021/09/17 03:51:33;;;;;;;8.30;7.30;;;;;;;16.39;78.17;95634.13;4995664;28;20223;-81
2021/09/17 03:54:00;;;;;;;7.57;6.88;;;;;;;16.36;78.76;95635.34;4995136;28;20641;-82
2021/09/17 03:56:27;;;;;;;8.23;6.75;;;;;;;16.38;78.63;95640.34;4997341;28;20266;-80
2021/09/17 03:58:54;;;;;;;7.82;6.80;;;;;;;16.38;78.84;95638.53;4992083;28;20289;-82
2021/09/17 04:01:21;;;;;;;9.48;7.10;;;;;;;16.33;79.55;95637.59;4982760;28;20200;-80
2021/09/17 04:03:47;;;;;;;7.57;6.82;;;;;;;16.35;79.18;95636.38;4976341;28;20207;-83
2021/09/17 04:06:13;;;;;;;7.97;7.25;;;;;;;16.35;79.67;95631.19;4974237;28;20208;-81
2021/09/17 04:08:40;;;;;;;8.50;7.05;;;;;;;16.29;80.56;95634.63;4994793;28;20222;-81
2021/09/17 04:11:06;;;;;;;7.88;6.75;;;;;;;16.28;80.66;95627.03;4988692;28;20765;-82
2021/09/17 04:13:34;;;;;;;8.45;7.13;;;;;;;16.24;81.19;95630.03;4975800;28;20259;-82
2021/09/17 04:16:00;;;;;;;7.47;6.75;;;;;;;16.30;80.89;95630.22;4975410;28;20208;-81
2021/09/17 04:18:27;;;;;;;10.40;7.28;;;;;;;16.32;80.58;95631.59;4975558;28;20254;-80
2021/09/17 04:20:53;;;;;;;7.53;6.78;;;;;;;16.36;80.21;95639.75;4975161;28;20196;-80
2021/09/17 04:23:20;;;;;;;7.40;6.68;;;;;;;16.37;79.99;95641.34;4975203;28;20737;-82
2021/09/17 04:25:46;;;;;;;7.70;6.90;;;;;;;16.29;81.09;95626.03;4993659;28;20199;-81
2021/09/17 04:28:12;;;;;;;8.88;6.82;;;;;;;16.27;81.04;95634.03;4994910;28;20803;-81
2021/09/17 04:30:40;;;;;;;7.75;6.95;;;;;;;16.16;82.56;95632.13;4995064;28;20238;-81
2021/09/17 04:33:07;;;;;;;7.88;7.18;;;;;;;16.18;82.36;95635.28;4995189;28;20258;-81
2021/09/17 04:35:33;;;;;;;8.40;7.22;;;;;;;16.17;81.96;95642.25;4994910;28;20203;-81
2021/09/17 04:38:00;;;;;;;8.05;6.75;;;;;;;16.15;82.91;95639.09;4995616;28;20203;-82
2021/09/17 04:40:27;;;;;;;7.55;6.85;;;;;;;16.22;81.87;95637.25;4995572;28;20623;-81
2021/09/17 04:42:53;;;;;;;7.63;6.90;;;;;;;16.28;81.06;95637.41;4981587;28;20216;-80
2021/09/17 04:45:20;;;;;;;8.57;7.55;;;;;;;16.24;81.20;95640.44;4975192;28;20584;-81
2021/09/17 04:47:47;;;;;;;8.25;7.25;;;;;;;16.24;81.73;95637.03;4984583;28;20619;-82
2021/09/17 04:50:14;;;;;;;8.07;7.18;;;;;;;16.29;81.34;95642.41;4990946;28;20598;-81
2021/09/17 04:52:40;;;;;;;7.80;6.93;;;;;;;16.33;80.13;95645.38;4993554;28;20382;-82
2021/09/17 04:55:08;;;;;;;7.90;7.10;;;;;;;16.33;80.55;95648.78;4993950;28;20212;-81
2021/09/17 04:57:36;;;;;;;8.27;7.43;;;;;;;16.26;81.03;95649.81;4989631;28;20577;-84
2021/09/17 05:00:04;;;;;;;10.07;7.32;;;;;;;16.22;81.39;95654.63;4993791;28;20211;-83
2021/09/17 05:02:31;;;;;;;8.75;7.50;;;;;;;16.21;81.23;95651.25;4992846;28;20219;-85
2021/09/17 05:04:58;;;;;;;8.02;7.22;;;;;;;16.20;80.68;95657.44;4993139;28;20222;-84
2021/09/17 05:07:25;;;;;;;8.40;7.60;;;;;;;16.21;80.61;95658.25;4990182;28;20685;-84
2021/09/17 05:09:51;;;;;;;9.13;8.02;;;;;;;16.05;82.76;95656.94;4992526;28;20199;-83
2021/09/17 05:12:18;;;;;;;8.02;7.25;;;;;;;16.15;81.75;95653.91;4992557;28;20235;-83
2021/09/17 05:14:44;;;;;;;8.30;7.32;;;;;;;16.18;80.43;95664.66;4991690;28;20230;-82
2021/09/17 05:17:10;;;;;;;10.27;8.15;;;;;;;16.09;84.24;95652.94;4996360;28;20693;-86
2021/09/17 05:19:37;;;;;;;10.48;8.27;;;;;;;16.14;82.11;95655.69;4979080;28;20208;-88
2021/09/17 05:22:05;;;;;;;20.67;18.60;;;;;;;16.18;80.83;95661.25;4977308;28;20283;-87
2021/09/17 05:24:31;;;;;;;13.80;12.30;;;;;;;16.26;80.66;95665.41;4977064;28;20226;-82
2021/09/17 05:26:58;;;;;;;9.45;8.52;;;;;;;16.28;80.72;95672.00;4977018;28;20282;-85
2021/09/17 05:29:24;;;;;;;9.02;7.57;;;;;;;16.31;79.64;95658.59;4978040;28;20241;-83
2021/09/17 05:31:51;;;;;;;9.10;7.70;;;;;;;16.31;79.42;95660.38;4995627;28;20603;-84
2021/09/17 05:34:17;;;;;;;8.90;7.90;;;;;;;16.32;79.50;95657.59;4996495;28;20203;-84
2021/09/17 05:36:44;;;;;;;8.73;7.90;;;;;;;16.34;79.22;95665.16;4995985;28;20200;-84
2021/09/17 05:39:12;;;;;;;9.05;8.13;;;;;;;16.36;79.40;95661.34;4993382;28;20662;-84
2021/09/17 05:41:38;;;;;;;8.30;7.47;;;;;;;16.38;79.75;95663.72;4984701;28;20239;-83
2021/09/17 05:44:05;;;;;;;7.65;6.95;;;;;;;16.42;79.82;95660.50;4976374;28;20230;-86
2021/09/17 05:46:31;;;;;;;8.30;7.45;;;;;;;16.43;79.67;95663.91;4991015;28;20199;-82
2021/09/17 05:48:58;;;;;;;8.27;7.43;;;;;;;16.48;80.07;95669.25;4972825;28;20205;-82
2021/09/17 05:51:24;;;;;;;45.30;40.75;;;;;;;16.50;79.92;95665.44;4971608;28;20227;-83
2021/09/17 05:53:50;;;;;;;13.93;12.18;;;;;;;16.50;80.32;95660.25;4971285;28;20207;-81
2021/09/17 05:56:19;;;;;;;10.20;8.50;;;;;;;16.47;80.80;95668.47;4971672;28;20212;-82
2021/09/17 05:58:45;;;;;;;9.60;8.13;;;;;;;16.46;80.25;95666.06;4971529;28;20211;-83
2021/09/17 06:01:15;;;;;;;10.65;8.27;;;;;;;16.53;80.20;95674.63;4971318;28;20208;-82
2021/09/17 06:03:41;;;;;;;8.65;7.75;;;;;;;16.54;80.10;95669.22;4979892;28;20236;-82
2021/09/17 06:06:08;;;;;;;9.93;8.18;;;;;;;16.57;79.42;95670.59;4970777;28;20228;-83
2021/09/17 06:08:35;;;;;;;9.65;8.32;;;;;;;16.62;78.89;95672.56;4988252;28;20199;-83
2021/09/17 06:11:01;;;;;;;9.65;7.28;;;;;;;16.68;78.72;95677.75;4990771;28;20578;-86
2021/09/17 06:13:29;;;;;;;9.23;8.32;;;;;;;16.68;79.06;95676.94;4988900;28;20259;-87
2021/09/17 06:15:55;;;;;;;9.10;8.20;;;;;;;16.65;78.99;95678.16;4971818;28;20605;-86
2021/09/17 06:18:22;;;;;;;8.82;7.93;;;;;;;16.71;79.34;95677.31;4985765;28;20203;-82
2021/09/17 06:20:48;;;;;;;9.23;7.53;;;;;;;16.71;79.45;95677.31;4989834;28;20203;-82
2021/09/17 06:23:15;;;;;;;9.48;8.00;;;;;;;16.73;80.17;95677.91;4988669;28;20223;-82
2021/09/17 06:25:41;;;;;;;10.40;7.72;;;;;;;16.76;80.41;95681.88;4988957;28;20207;-81
2021/09/17 06:28:09;;;;;;;9.48;7.75;;;;;;;16.81;79.81;95677.63;4990154;28;20336;-82
2021/09/17 06:30:36;;;;;;;9.05;7.80;;;;;;;16.84;79.62;95666.00;4990286;28;20678;-83
2021/09/17 06:33:03;;;;;;;9.63;7.32;;;;;;;16.90;79.52;95670.38;4989043;28;20951;-82
2021/09/17 06:35:30;;;;;;;9.00;8.10;;;;;;;16.97;79.38;95665.09;4990229;28;20204;-82
2021/09/17 06:37:56;;;;;;;8.50;7.65;;;;;;;16.86;81.14;95661.41;4985229;28;20215;-83
2021/09/17 06:40:27;;;;;;;17.10;15.35;;;;;;;16.93;81.01;95664.75;4991076;28;20206;-82
2021/09/17 06:42:54;;;;;;;20.70;14.45;;;;;;;17.11;79.79;95671.78;4989602;28;20270;-82
2021/09/17 06:45:20;;;;;;;13.73;10.63;;;;;;;17.29;79.33;95668.41;4989895;28;20199;-82
2021/09/17 06:47:51;;;;;;;9.93;7.68;;;;;;;17.32;77.73;95668.75;4991204;28;20199;-82
2021/09/17 06:50:18;;;;;;;8.45;7.55;;;;;;;17.38;77.81;95670.50;4989516;28;20235;-82
2021/09/17 06:52:49;;;;;;;7.85;6.80;;;;;;;17.49;76.73;95674.19;4974613;28;20236;-82
2021/09/17 06:55:17;;;;;;;8.30;7.50;;;;;;;17.54;76.34;95674.31;4970389;28;20204;-82
2021/09/17 06:57:48;;;;;;;7.70;7.00;;;;;;;17.56;75.27;95674.91;4970411;28;20243;-82
2021/09/17 07:00:17;;;;;;;7.38;6.68;;;;;;;17.56;75.65;95677.50;4970921;28;20208;-82
2021/09/17 07:02:43;;;;;;;7.43;6.45;;;;;;;17.55;75.85;95678.50;4970202;28;20220;-82
2021/09/17 07:05:12;;;;;;;8.80;7.38;;;;;;;17.57;74.21;95671.28;4969779;28;20215;-82
2021/09/17 07:07:39;;;;;;;10.25;7.72;;;;;;;17.58;74.51;95673.69;4981668;28;20643;-82
2021/09/17 07:10:08;;;;;;;8.38;7.38;;;;;;;17.60;73.63;95676.06;4970349;28;20196;-82
2021/09/17 07:12:35;;;;;;;7.45;6.72;;;;;;;17.64;72.77;95673.81;4969821;28;20228;-82
2021/09/17 07:15:02;;;;;;;7.80;6.75;;;;;;;17.67;72.32;95674.22;4970416;28;20646;-82
2021/09/17 07:17:29;;;;;;;8.57;7.63;;;;;;;17.71;73.47;95674.56;4970747;28;20300;-83
2021/09/17 07:19:55;;;;;;;7.85;7.05;;;;;;;17.70;73.51;95678.19;4970449;28;20212;-82
2021/09/17 07:22:23;;;;;;;8.55;7.03;;;;;;;17.71;73.66;95679.75;4970464;28;20223;-82
2021/09/17 07:24:50;;;;;;;7.57;6.80;;;;;;;17.71;73.75;95677.16;4970372;28;20735;-83
2021/09/17 07:27:16;;;;;;;7.72;7.10;;;;;;;17.68;74.64;95678.41;4971084;28;20610;-82
2021/09/17 07:29:43;;;;;;;7.68;6.88;;;;;;;17.70;74.79;95671.19;4970411;28;20204;-86
2021/09/17 07:32:09;;;;;;;8.68;7.68;;;;;;;17.70;75.08;95673.78;4973256;28;20242;-86
2021/09/17 07:34:36;;;;;;;8.57;7.57;;;;;;;17.71;74.50;95671.94;4989960;28;20266;-85
2021/09/17 07:37:03;;;;;;;13.32;12.02;;;;;;;17.77;74.35;95682.31;4989284;28;20266;-86
2021/09/17 07:39:30;;;;;;;9.85;8.85;;;;;;;17.81;74.47;95672.25;4989377;28;20211;-85
2021/09/17 07:41:57;;;;;;;9.50;8.15;;;;;;;17.83;73.76;95675.44;4991513;28;20270;-82
2021/09/17 07:44:24;;;;;;;10.40;8.48;;;;;;;17.70;74.76;95673.00;4986169;28;20204;-82
2021/09/17 07:46:50;;;;;;;8.85;7.40;;;;;;;17.75;74.86;95673.09;4989156;28;20211;-82
2021/09/17 07:49:17;;;;;;;8.02;7.28;;;;;;;17.82;74.81;95663.41;4992647;28;20227;-82
2021/09/17 07:51:43;;;;;;;8.18;7.38;;;;;;;17.79;75.90;95664.66;4992636;28;20231;-82
2021/09/17 07:54:10;;;;;;;8.02;6.85;;;;;;;17.89;75.45;95666.75;4993275;28;20200;-83
2021/09/17 07:56:38;;;;;;;9.07;8.18;;;;;;;17.87;74.26;95660.97;4987517;28;20254;-82
2021/09/17 07:59:05;;;;;;;14.13;12.32;;;;;;;17.85;74.38;95657.78;4984947;28;20736;-84
2021/09/17 08:01:31;;;;;;;9.80;8.90;;;;;;;17.90;74.02;95660.50;4988835;28;20211;-85
2021/09/17 08:03:57;;;;;;;12.10;8.20;;;;;;;17.89;73.97;95666.75;4991714;28;20208;-87
2021/09/17 08:06:24;;;;;;;9.13;8.20;;;;;;;17.91;73.82;95662.09;4992483;28;20261;-86
2021/09/17 08:08:50;;;;;;;8.30;7.50;;;;;;;17.87;74.44;95666.16;4992004;28;20203;-84
2021/09/17 08:11:17;;;;;;;8.85;7.90;;;;;;;17.87;74.72;95664.34;4986924;28;20200;-86
2021/09/17 08:13:45;;;;;;;9.05;6.93;;;;;;;17.92;75.23;95669.69;4977065;28;20232;-82
2021/09/17 08:16:11;;;;;;;6.82;6.10;;;;;;;17.99;74.78;95666.22;4985842;28;20570;-82
2021/09/17 08:18:38;;;;;;;11.95;7.25;;;;;;;18.04;75.52;95676.78;4975276;28;20204;-82
2021/09/17 08:21:04;;;;;;;10.07;6.93;;;;;;;18.00;76.45;95683.44;4975794;28;20208;-82
2021/09/17 08:23:31;;;;;;;9.60;6.97;;;;;;;17.92;75.42;95674.09;4972201;28;20224;-82
2021/09/17 08:25:57;;;;;;;7.28;6.57;;;;;;;17.93;76.22;95676.47;4972799;28;20205;-85
2021/09/17 08:28:25;;;;;;;7.00;6.28;;;;;;;18.02;74.76;95677.00;4972932;28;20270;-87
2021/09/17 08:30:53;;;;;;;8.50;6.65;;;;;;;18.07;73.37;95679.75;4972832;28;20204;-85
2021/09/17 08:33:19;;;;;;;8.00;6.18;;;;;;;18.06;73.75;95678.16;4980633;28;20227;-85
2021/09/17 08:35:46;;;;;;;7.93;7.13;;;;;;;18.03;73.09;95677.78;4991281;28;20203;-89
2021/09/17 08:38:13;;;;;;;8.00;7.13;;;;;;;18.10;73.61;95681.09;4991649;28;20220;-85
2021/09/17 08:40:40;;;;;;;7.32;6.70;;;;;;;18.15;73.03;95669.00;4990838;28;20227;-85
2021/09/17 08:43:07;;;;;;;22.30;20.05;;;;;;;18.25;72.29;95674.47;4990958;28;20228;-85
2021/09/17 08:45:33;;;;;;;19.48;17.60;;;;;;;18.26;73.42;95672.66;4991495;28;20210;-84
2021/09/17 08:48:02;;;;;;;9.73;8.73;;;;;;;18.22;73.73;95681.94;4991752;28;20609;-86
2021/09/17 08:50:30;;;;;;;9.48;6.82;;;;;;;18.47;72.25;95682.56;4991390;28;20238;-85
2021/09/17 08:52:56;;;;;;;9.00;6.30;;;;;;;18.45;70.71;95679.41;4991134;28;20289;-85
2021/09/17 08:55:23;;;;;;;7.30;6.57;;;;;;;18.25;71.80;95681.50;4974881;28;20204;-85
2021/09/17 08:57:50;;;;;;;7.65;6.35;;;;;;;18.28;72.76;95681.81;4985169;28;20206;-84
2021/09/17 09:00:43;;;;;;;11.27;7.10;;;;;;;18.33;71.72;95688.19;4984478;28;20764;-86
2021/09/17 09:03:26;;;;;;;8.02;7.22;;;;;;;18.29;71.70;95682.63;4971735;28;20258;-84
2021/09/17 09:05:55;;;;;;;7.63;6.90;;;;;;;18.29;72.45;95680.00;4972741;28;20200;-86
2021/09/17 09:08:24;;;;;;;7.03;6.43;;;;;;;18.35;71.83;95684.34;4988764;28;20250;-85
2021/09/17 09:10:51;;;;;;;9.07;6.78;;;;;;;18.38;72.73;95680.50;4977454;28;20208;-87
2021/09/17 09:13:18;;;;;;;7.22;6.53;;;;;;;18.24;75.21;95677.31;4986832;28;20230;-88
2021/09/17 09:15:44;;;;;;;7.70;7.00;;;;;;;18.18;75.54;95678.97;4991811;28;20210;-84
2021/09/17 09:18:18;;;;;;;8.10;7.40;;;;;;;18.22;74.38;95677.53;4992646;28;20579;-88
2021/09/17 09:20:46;;;;;;;26.10;20.90;;;;;;;18.15;75.45;95676.81;4989783;28;20737;-86
2021/09/17 09:23:19;;;;;;;27.13;24.45;;;;;;;18.13;74.25;95673.63;4972427;28;20768;-87
2021/09/17 09:25:52;;;;;;;11.75;10.43;;;;;;;18.17;74.28;95674.78;4972692;28;20212;-87
2021/09/17 09:28:20;;;;;;;7.93;7.22;;;;;;;18.20;72.83;95674.34;4972777;28;20263;-87
2021/09/17 09:30:47;;;;;;;7.00;6.22;;;;;;;18.27;72.20;95671.66;4973516;28;20227;-89
2021/09/17 09:33:30;;;;;;;8.27;7.47;;;;;;;18.35;72.57;95667.91;4984354;28;20234;-87
2021/09/17 09:36:02;;;;;;;7.07;6.47;;;;;;;18.44;71.36;95659.56;4990208;28;20203;-88
2021/09/17 09:38:30;;;;;;;7.15;6.45;;;;;;;18.42;72.51;95661.59;4990394;28;20258;-87
2021/09/17 09:40:58;;;;;;;6.90;6.07;;;;;;;18.55;72.04;95653.56;4990192;28;20200;-89
2021/09/17 09:43:29;;;;;;;6.97;6.28;;;;;;;18.63;71.27;95653.28;4989374;28;20219;-87
2021/09/17 09:45:57;;;;;;;7.28;6.57;;;;;;;18.73;69.52;95659.75;4984942;28;20910;-88
2021/09/17 09:48:24;;;;;;;8.18;6.50;;;;;;;18.79;68.77;95651.81;4991211;28;20564;-87
2021/09/17 09:51:10;;;;;;;6.93;6.22;;;;;;;18.91;69.68;95646.59;4985517;28;20199;-90
2021/09/17 09:53:37;;;;;;;7.10;5.68;;;;;;;19.13;69.83;95645.00;4971165;28;20702;-90
2021/09/17 09:56:04;;;;;;;8.45;6.93;;;;;;;19.52;68.05;95645.31;4978784;28;20203;-86
2021/09/17 09:58:31;;;;;;;7.05;6.45;;;;;;;19.62;67.15;95648.94;4977826;28;20204;-87
2021/09/17 10:00:57;;;;;;;6.85;6.20;;;;;;;19.61;66.47;95634.31;4970654;28;20467;-90
2021/09/17 10:03:24;;;;;;;7.13;5.43;;;;;;;19.51;65.81;95636.69;4978953;28;20215;-87
2021/09/17 10:05:52;;;;;;;7.03;6.03;;;;;;;19.31;66.25;95634.44;4975588;28;20578;-88
2021/09/17 10:08:22;;;;;;;6.55;5.93;;;;;;;19.35;65.30;95623.53;4980073;28;20200;-88
2021/09/17 10:10:49;;;;;;;6.15;5.68;;;;;;;19.29;66.12;95631.25;4970172;28;20200;-90
2021/09/17 10:13:15;;;;;;;5.82;5.32;;;;;;;19.30;66.13;95630.22;4987801;28;20231;-88
2021/09/17 10:15:42;;;;;;;5.75;5.15;;;;;;;19.47;65.95;95632.91;4989206;28;20207;-87
2021/09/17 10:18:14;;;;;;;6.43;5.05;;;;;;;19.64;65.63;95631.19;4970407;28;20225;-86
2021/09/17 10:20:41;;;;;;;5.03;4.30;;;;;;;19.75;63.58;95636.63;4969962;28;20204;-85
2021/09/17 10:23:26;;;;;;;6.30;4.10;;;;;;;19.88;61.36;95625.91;4969709;28;20220;-86
2021/09/17 10:26:07;;;;;;;6.75;4.10;;;;;;;19.85;63.09;95632.38;4970428;28;20247;-87
2021/09/17 10:28:55;;;;;;;3.67;3.33;;;;;;;19.78;62.07;95629.13;4986870;28;20214;-85
2021/09/17 10:31:23;;;;;;;3.88;3.53;;;;;;;19.73;61.56;95631.63;4988981;28;20231;-85
2021/09/17 10:33:49;;;;;;;3.75;3.45;;;;;;;19.67;62.73;95625.50;4988226;28;20251;-86
2021/09/17 10:36:42;;;;;;;3.42;3.13;;;;;;;19.70;62.00;95623.47;4989585;28;20211;-86
2021/09/17 10:39:14;;;;;;;2.70;2.50;;;;;;;19.86;60.36;95617.50;4971464;28;20208;-86
2021/09/17 10:42:06;;;;;;;3.05;2.75;;;;;;;19.87;58.63;95609.44;4969867;28;20227;-86
2021/09/17 10:44:53;;;;;;;6.00;3.50;;;;;;;19.83;59.42;95616.13;4968847;28;20211;-88
2021/09/17 10:47:54;;;;;;;4.82;2.38;;;;;;;19.77;58.88;95614.47;4968796;28;20223;-85
2021/09/17 10:50:38;;;;;;;7.32;6.57;;;;;;;19.85;54.51;95613.28;4970195;28;20211;-85
2021/09/17 10:53:09;;;;;;;6.60;6.05;;;;;;;19.91;55.12;95615.78;4969716;28;20227;-88
2021/09/17 10:56:02;;;;;;;2.58;2.35;;;;;;;19.91;52.26;95615.00;4970147;28;20324;-86
2021/09/17 10:58:30;;;;;;;3.15;2.22;;;;;;;19.92;54.69;95608.72;4971103;28;20231;-88
2021/09/17 11:00:58;;;;;;;2.42;1.75;;;;;;;19.80;55.44;95613.22;4985228;28;20232;-85
2021/09/17 11:04:04;;;;;;;3.00;2.08;;;;;;;19.61;55.08;95613.41;4988894;28;20223;-85
2021/09/17 11:06:31;;;;;;;3.08;1.50;;;;;;;19.54;52.74;95611.94;4982220;28;20211;-85
2021/09/17 11:09:00;;;;;;;1.88;1.58;;;;;;;19.50;54.43;95614.22;4981261;28;20211;-86
2021/09/17 11:11:28;;;;;;;1.90;1.70;;;;;;;19.46;53.95;95607.03;4969780;28;20735;-85
2021/09/17 11:13:57;;;;;;;4.00;1.80;;;;;;;19.49;54.17;95606.56;4973245;28;20227;-85
2021/09/17 11:16:26;;;;;;;2.25;1.63;;;;;;;19.41;54.83;95612.97;4975582;28;20199;-89
2021/09/17 11:18:54;;;;;;;3.90;1.70;;;;;;;19.37;55.13;95608.44;4973813;28;20211;-85
2021/09/17 11:21:24;;;;;;;7.60;2.08;;;;;;;19.28;54.45;95613.19;4973877;28;20215;-85
2021/09/17 11:23:52;;;;;;;5.22;1.98;;;;;;;19.24;56.02;95612.09;4972593;28;20323;-86
2021/09/17 11:26:20;;;;;;;2.55;1.80;;;;;;;19.17;55.80;95608.81;4973359;28;20239;-84
2021/09/17 11:29:04;;;;;;;2.78;1.50;;;;;;;19.24;56.95;95607.63;4973748;28;20211;-85
2021/09/17 11:31:35;;;;;;;20.38;18.35;;;;;;;19.23;56.90;95606.09;4976117;28;20235;-85
2021/09/17 11:34:04;;;;;;;9.77;8.77;;;;;;;19.27;55.55;95609.00;4991241;28;20306;-85
2021/09/17 11:36:38;;;;;;;4.15;3.75;;;;;;;19.33;55.15;95608.88;4992213;28;20208;-86